createdAt,value
2023-03-11T00:04:52.721Z,21.6
2023-03-11T00:10:09.925Z,21.6
2023-03-11T00:15:08.010Z,21.6
2023-03-11T00:20:11.091Z,21.6
2023-03-11T00:25:10.868Z,21.6
2023-03-11T00:30:11.211Z,21.6
2023-03-11T00:35:11.726Z,21.6
2023-03-11T00:40:14.877Z,21.6
2023-03-11T00:45:17.782Z,21.6
2023-03-11T00:50:24.816Z,21.5
2023-03-11T00:55:24.110Z,21.5
2023-03-11T01:00:25.474Z,21.5
2023-03-11T01:05:25.779Z,21.5
2023-03-11T01:10:28.968Z,21.5
2023-03-11T01:15:29.024Z,21.5
2023-03-11T01:20:30.446Z,21.4
2023-03-11T01:25:30.929Z,21.5
2023-03-11T01:30:31.391Z,21.5
2023-03-11T01:35:31.825Z,21.5
2023-03-11T01:40:32.411Z,21.5
2023-03-11T01:45:32.993Z,21.5
2023-03-11T01:50:33.520Z,21.5
2023-03-11T01:55:33.966Z,21.4
2023-03-11T02:00:34.312Z,21.5
2023-03-11T02:05:41.877Z,21.5
2023-03-11T02:10:41.316Z,21.5
2023-03-11T02:15:41.859Z,21.3
2023-03-11T02:20:42.347Z,21.4
2023-03-11T02:25:42.810Z,21.5
2023-03-11T02:30:43.118Z,21.4
2023-03-11T02:35:46.364Z,21.4
2023-03-11T02:40:46.662Z,21.3
2023-03-11T02:45:46.978Z,21.4
2023-03-11T02:50:47.370Z,21.3
2023-03-11T02:55:47.788Z,21.4
2023-03-11T03:00:48.205Z,21.4
2023-03-11T03:05:48.509Z,21.4
2023-03-11T03:10:49.433Z,21.3
2023-03-11T03:15:49.705Z,21.4
2023-03-11T03:20:50.212Z,21.3
2023-03-11T03:25:50.919Z,21.3
2023-03-11T03:30:51.522Z,21.2
2023-03-11T03:35:52.275Z,21.2
2023-03-11T03:40:52.772Z,21.4
2023-03-11T03:45:53.567Z,21.4
2023-03-11T03:50:54.192Z,21.2
2023-03-11T03:55:54.679Z,21.4
2023-03-11T04:00:54.878Z,21.3
2023-03-11T04:05:55.281Z,21.3
2023-03-11T04:10:55.834Z,21.4
2023-03-11T04:15:56.399Z,21.3
2023-03-11T04:20:56.790Z,21.3
2023-03-11T04:25:57.461Z,21.2
2023-03-11T04:30:58.201Z,21.2
2023-03-11T04:35:58.763Z,21.3
2023-03-11T04:40:59.051Z,21.3
2023-03-11T04:46:02.526Z,21.3
2023-03-11T04:51:02.576Z,21.1
2023-03-11T04:56:02.878Z,21.4
2023-03-11T05:01:03.297Z,21.3
2023-03-11T05:06:04.082Z,21.2
2023-03-11T05:11:04.702Z,21.3
2023-03-11T05:16:05.477Z,21.1
2023-03-11T05:21:05.953Z,21.2
2023-03-11T05:26:06.461Z,21.2
2023-03-11T05:31:06.953Z,21.3
2023-03-11T05:36:07.580Z,21.1
2023-03-11T05:41:08.044Z,21.2
2023-03-11T05:46:08.618Z,21.2
2023-03-11T05:51:08.952Z,21.2
2023-03-11T05:56:09.470Z,21.3
2023-03-11T06:01:09.928Z,21.1
2023-03-11T06:11:11.953Z,21.1
2023-03-11T06:16:12.543Z,21.3
2023-03-11T06:21:13.835Z,21.2
2023-03-11T06:26:17.046Z,21.2
2023-03-11T06:31:17.159Z,21.3
2023-03-11T06:36:18.638Z,21.2
2023-03-11T06:41:19.294Z,21.3
2023-03-11T06:46:19.918Z,21.3
2023-03-11T06:51:19.976Z,21.3
2023-03-11T06:56:20.780Z,21.3
2023-03-11T07:01:21.324Z,21.3
2023-03-11T07:06:21.797Z,21.3
2023-03-11T07:11:25.056Z,21.2
2023-03-11T07:16:25.165Z,21.3
2023-03-11T07:21:28.398Z,21.3
2023-03-11T07:26:28.522Z,21.4
2023-03-11T07:31:28.944Z,21.4
2023-03-11T07:36:29.433Z,21.4
2023-03-11T07:41:29.735Z,21.4
2023-03-11T07:46:30.412Z,21.4
2023-03-11T07:51:30.695Z,21.4
2023-03-11T07:56:31.252Z,21.4
2023-03-11T08:01:31.708Z,21.5
2023-03-11T08:06:33.142Z,21.5
2023-03-11T08:11:36.463Z,21.6
2023-03-11T08:16:36.352Z,21.6
2023-03-11T08:21:36.875Z,21.6
2023-03-11T08:26:37.544Z,21.6
2023-03-11T08:31:38.143Z,21.6
2023-03-11T08:36:38.822Z,21.6
2023-03-11T08:41:39.141Z,21.6
2023-03-11T08:46:39.833Z,21.7
2023-03-11T08:51:40.286Z,21.7
2023-03-11T08:56:43.381Z,21.7
2023-03-11T09:01:43.568Z,21.7
2023-03-11T09:06:44.198Z,21.8
2023-03-11T09:11:43.835Z,21.8
2023-03-11T09:16:44.673Z,21.7
2023-03-11T09:21:45.596Z,21.7
2023-03-11T09:26:46.175Z,21.8
2023-03-11T09:31:46.833Z,21.7
2023-03-11T09:36:47.305Z,21.7
2023-03-11T09:41:57.335Z,21.8
2023-03-11T09:46:51.049Z,21.9
2023-03-11T09:51:51.570Z,21.8
2023-03-11T09:56:54.477Z,21.9
2023-03-11T10:01:54.578Z,21.9
2023-03-11T10:06:55.030Z,21.9
2023-03-11T10:11:55.589Z,21.8
2023-03-11T10:16:56.163Z,22
2023-03-11T10:21:56.642Z,21.9
2023-03-11T10:26:57.315Z,22
2023-03-11T10:31:57.812Z,22
2023-03-11T10:36:58.205Z,22
2023-03-11T10:41:58.541Z,22
2023-03-11T10:46:58.920Z,22.1
2023-03-11T10:51:59.448Z,22
2023-03-11T10:56:59.915Z,22
2023-03-11T11:02:00.331Z,22.1
2023-03-11T11:07:00.805Z,22.1
2023-03-11T11:12:01.387Z,22.1
2023-03-11T11:17:04.765Z,22.2
2023-03-11T11:22:04.804Z,22.2
2023-03-11T11:27:08.012Z,22.1
2023-03-11T11:32:08.152Z,22.2
2023-03-11T11:37:08.698Z,22.2
2023-03-11T11:42:08.976Z,22.3
2023-03-11T11:47:09.523Z,22.3
2023-03-11T11:52:10.128Z,22.3
2023-03-11T11:57:10.815Z,22.4
2023-03-11T12:02:11.320Z,22.4
2023-03-11T12:07:11.912Z,22.5
2023-03-11T12:12:12.348Z,22.5
2023-03-11T12:17:15.900Z,22.5
2023-03-11T12:22:15.858Z,22.5
2023-03-11T12:27:19.074Z,22.5
2023-03-11T12:32:19.217Z,22.5
2023-03-11T12:37:19.861Z,22.6
2023-03-11T12:42:20.388Z,22.5
2023-03-11T12:47:20.758Z,22.5
2023-03-11T12:52:21.289Z,22.5
2023-03-11T12:57:21.886Z,22.6
2023-03-11T13:02:23.037Z,22.5
2023-03-11T13:07:23.146Z,22.5
2023-03-11T13:12:23.682Z,22.6
2023-03-11T13:17:24.400Z,22.6
2023-03-11T13:22:25.075Z,22.5
2023-03-11T13:27:28.364Z,22.6
2023-03-11T13:32:28.531Z,22.6
2023-03-11T13:37:29.092Z,22.5
2023-03-11T13:42:32.380Z,22.5
2023-03-11T13:47:32.283Z,22.6
2023-03-11T13:52:35.456Z,22.6
2023-03-11T13:57:35.438Z,22.6
2023-03-11T14:02:35.873Z,22.6
2023-03-11T14:07:35.422Z,22.5
2023-03-11T14:12:36.096Z,22.6
2023-03-11T14:17:36.649Z,22.6
2023-03-11T14:22:37.225Z,22.5
2023-03-11T14:27:37.727Z,22.6
2023-03-11T14:32:38.148Z,22.6
2023-03-11T14:37:38.790Z,22.6
2023-03-11T14:42:39.141Z,22.6
2023-03-11T14:47:42.194Z,22.6
2023-03-11T14:52:42.149Z,22.6
2023-03-11T14:57:42.399Z,22.6
2023-03-11T15:02:42.869Z,22.6
2023-03-11T15:07:43.535Z,22.7
2023-03-11T15:12:43.909Z,22.6
2023-03-11T15:17:44.602Z,22.6
2023-03-11T15:22:44.817Z,22.6
2023-03-11T15:27:45.092Z,22.6
2023-03-11T15:32:48.516Z,22.7
2023-03-11T15:37:48.530Z,22.7
2023-03-11T15:42:48.987Z,22.5
2023-03-11T15:47:49.580Z,22.7
2023-03-11T15:52:50.086Z,22.4
2023-03-11T15:57:50.506Z,22.6
2023-03-11T16:02:50.952Z,22.6
2023-03-11T16:07:51.323Z,22.6
2023-03-11T16:12:51.920Z,22.5
2023-03-11T16:17:52.388Z,22.6
2023-03-11T16:22:55.543Z,22.6
2023-03-11T16:27:55.377Z,22.6
2023-03-11T16:32:55.864Z,22.4
2023-03-11T16:37:59.208Z,22.6
2023-03-11T16:42:59.133Z,22.6
2023-03-11T16:47:59.644Z,22.6
2023-03-11T16:53:00.218Z,22.6
2023-03-11T16:58:00.791Z,22.5
2023-03-11T17:03:01.395Z,22.5
2023-03-11T17:08:04.709Z,22.6
2023-03-11T17:13:05.874Z,22.6
2023-03-11T17:18:08.760Z,22.5
2023-03-11T17:23:08.709Z,22.6
2023-03-11T17:28:09.309Z,22.6
2023-03-11T17:33:09.718Z,22.5
2023-03-11T17:38:09.977Z,22.5
2023-03-11T17:43:10.484Z,22.6
2023-03-11T17:48:11.031Z,22.5
2023-03-11T17:53:11.574Z,22.5
2023-03-11T17:58:12.036Z,22.5
2023-03-11T18:03:12.559Z,22.5
2023-03-11T18:08:12.879Z,22.5
2023-03-11T18:13:13.512Z,22.5
2023-03-11T18:18:16.762Z,22.5
2023-03-11T18:23:16.874Z,22.5
2023-03-11T18:28:17.372Z,22.2
2023-03-11T18:33:17.677Z,22.4
2023-03-11T18:38:18.329Z,22.3
2023-03-11T18:43:18.793Z,22.4
2023-03-11T18:48:20.120Z,22.4
2023-03-11T18:53:20.358Z,22.4
2023-03-11T18:58:21.027Z,22
2023-03-11T19:03:21.598Z,22.1
2023-03-11T19:08:22.015Z,22.3
2023-03-11T19:13:22.334Z,22.2
2023-03-11T19:18:22.729Z,22.2
2023-03-11T19:23:23.461Z,22.1
2023-03-11T19:28:24.027Z,21.9
2023-03-11T19:33:24.261Z,22.1
2023-03-11T19:38:24.506Z,22
2023-03-11T19:43:24.910Z,22
2023-03-11T19:48:27.898Z,21.9
2023-03-11T19:53:27.642Z,21.9
2023-03-11T19:58:31.078Z,22
2023-03-11T20:03:30.918Z,21.9
2023-03-11T20:08:31.405Z,21.8
2023-03-11T20:13:31.925Z,21.8
2023-03-11T20:18:32.596Z,21.9
2023-03-11T20:23:33.181Z,21.9
2023-03-11T20:28:33.685Z,21.8
2023-03-11T20:33:34.264Z,21.6
2023-03-11T20:38:35.102Z,21.8
2023-03-11T20:43:35.338Z,21.7
2023-03-11T20:48:38.495Z,21.7
2023-03-11T20:53:38.467Z,21.5
2023-03-11T20:58:39.068Z,21.5
2023-03-11T21:03:39.465Z,21.6
2023-03-11T21:08:39.787Z,21.6
2023-03-11T21:13:40.383Z,21.5
2023-03-11T21:18:40.967Z,21.6
2023-03-11T21:23:44.347Z,21.5
2023-03-11T21:28:44.312Z,21.5
2023-03-11T21:33:45.026Z,21.5
2023-03-11T21:38:45.262Z,21.4
2023-03-11T21:43:45.548Z,21.5
2023-03-11T21:48:46.113Z,21.5
2023-03-11T21:53:46.463Z,21.4
2023-03-11T21:58:46.987Z,21.4
2023-03-11T22:03:47.484Z,21.3
2023-03-11T22:08:47.883Z,21.4
2023-03-11T22:13:48.161Z,21.4
2023-03-11T22:18:48.537Z,21.3
2023-03-11T22:23:48.782Z,21.3
2023-03-11T22:28:49.276Z,21.3
2023-03-11T22:33:49.845Z,21.3
2023-03-11T22:38:50.268Z,21.2
2023-03-11T22:43:50.463Z,21.3
2023-03-11T22:48:50.854Z,21.3
2023-03-11T22:53:51.263Z,21.3
2023-03-11T22:58:51.793Z,21.2
2023-03-11T23:03:55.119Z,21.3
2023-03-11T23:08:55.056Z,21.2
2023-03-11T23:13:55.423Z,21.2
2023-03-11T23:18:55.630Z,21.1
2023-03-11T23:23:56.144Z,21
2023-03-11T23:28:56.730Z,21.1
2023-03-11T23:33:57.168Z,21.1
2023-03-11T23:39:00.296Z,21.1
2023-03-11T23:44:00.259Z,21
2023-03-11T23:49:00.570Z,21
2023-03-11T23:54:03.990Z,21.1
2023-03-11T23:59:03.919Z,20.8
